Time;durP1;ratioP1;P1;durP2;ratioP2;P2;SDS_P1;SDS_P2;PMS_P1;PMS_P2;Temp;Humidity;BMP_temperature;BMP_pressure;BME280_temperature;BME280_humidity;BME280_pressure;Samples;Min_cycle;Max_cycle;Signal;HPM_P1;HPM_P2
2023/04/12 00:00:58;;;;;;;;;;;;;;;7.95;100.00;100568.97;5018920;28;19921;-71
2023/04/12 00:03:24;;;;;;;;;;;;;;;8.03;100.00;100567.59;5011180;28;19921;-72
2023/04/12 00:05:53;;;;;;;;;;;;;;;7.90;100.00;100568.47;5017900;28;20044;-73
2023/04/12 00:08:23;;;;;;;;;;;;;;;7.99;100.00;100548.25;5016374;28;19932;-72
2023/04/12 00:10:48;;;;;;;;;;;;;;;7.74;100.00;100550.00;5014919;28;20572;-74
2023/04/12 00:13:14;;;;;;;;;;;;;;;7.79;100.00;100533.63;5016361;28;19921;-73
2023/04/12 00:15:39;;;;;;;;;;;;;;;7.65;100.00;100519.44;5014220;28;19921;-71
2023/04/12 00:18:05;;;;;;;;;;;;;;;7.58;100.00;100522.63;5019059;28;20020;-73
2023/04/12 00:20:30;;;;;;;;;;;;;;;7.58;100.00;100530.63;5014576;28;19947;-73
2023/04/12 00:22:56;;;;;;;;;;;;;;;7.57;100.00;100521.78;5012582;28;19931;-72
2023/04/12 00:25:21;;;;;;;;;;;;;;;7.46;100.00;100524.34;5017915;28;19921;-74
2023/04/12 00:27:46;;;;;;;;;;;;;;;7.54;100.00;100503.28;5015358;28;21149;-73
2023/04/12 00:30:12;;;;;;;;;;;;;;;7.37;100.00;100514.31;5014882;28;19921;-71
2023/04/12 00:32:37;;;;;;;;;;;;;;;7.41;100.00;100505.13;5007783;28;19948;-72
2023/04/12 00:35:02;;;;;;;;;;;;;;;7.48;100.00;100506.38;5018624;28;19921;-70
2023/04/12 00:37:27;;;;;;;;;;;;;;;7.58;100.00;100478.06;5017583;28;19980;-71
2023/04/12 00:39:52;;;;;;;;;;;;;;;7.45;100.00;100464.72;5012673;28;20011;-74
2023/04/12 00:42:18;;;;;;;;;;;;;;;7.31;100.00;100468.38;5018268;28;20006;-72
2023/04/12 00:44:43;;;;;;;;;;;;;;;7.39;100.00;100459.81;5015298;28;19979;-72
2023/04/12 00:47:08;;;;;;;;;;;;;;;7.40;100.00;100439.31;5016475;28;19920;-71
2023/04/12 00:49:34;;;;;;;;;;;;;;;7.38;100.00;100452.75;5017773;28;20020;-71
2023/04/12 00:52:09;;;;;;;;;;;;;;;7.38;100.00;100438.56;5013825;28;19920;-74
2023/04/12 00:54:35;;;;;;;;;;;;;;;7.16;100.00;100435.59;5012782;28;19968;-74
2023/04/12 00:57:00;;;;;;;;;;;;;;;7.19;100.00;100437.19;5013185;28;19975;-72
2023/04/12 00:59:26;;;;;;;;;;;;;;;7.25;100.00;100407.38;5014823;28;20368;-74
2023/04/12 01:01:51;;;;;;;;;;;;;;;7.20;100.00;100410.38;5010282;28;19925;-73
2023/04/12 01:04:17;;;;;;;;;;;;;;;7.23;100.00;100424.47;5015296;28;19972;-76
2023/04/12 01:06:58;;;;;;;;;;;;;;;7.18;100.00;100419.44;5017187;28;19921;-72
2023/04/12 01:09:33;;;;;;;;;;;;;;;7.17;100.00;100415.06;5013347;28;19925;-74
2023/04/12 01:11:59;;;;;;;;;;;;;;;7.48;100.00;100391.53;5014601;28;19920;-73
2023/04/12 01:14:24;;;;;;;;;;;;;;;7.23;100.00;100384.44;5016778;28;20315;-72
2023/04/12 01:16:53;;;;;;;;;;;;;;;7.01;100.00;100378.78;5014068;28;19964;-74
2023/04/12 01:19:32;;;;;;;;;;;;;;;7.17;100.00;100367.00;5018576;28;20016;-71
2023/04/12 01:22:03;;;;;;;;;;;;;;;7.01;100.00;100360.09;5012460;28;19925;-72
2023/04/12 01:24:35;;;;;;;;;;;;;;;6.95;100.00;100365.03;5016364;28;20188;-71
2023/04/12 01:27:01;;;;;;;;;;;;;;;7.04;100.00;100345.66;5013525;28;20452;-74
2023/04/12 01:29:27;;;;;;;;;;;;;;;7.08;100.00;100343.66;5012785;28;19925;-73
2023/04/12 01:31:57;;;;;;;;;;;;;;;7.13;100.00;100338.84;5015607;28;20434;-73
2023/04/12 01:34:22;;;;;;;;;;;;;;;7.02;100.00;100329.78;5008873;28;19972;-74
2023/04/12 01:36:48;;;;;;;;;;;;;;;7.11;100.00;100322.09;5009556;28;20470;-74
2023/04/12 01:39:13;;;;;;;;;;;;;;;7.05;100.00;100318.00;5011379;28;20506;-72
2023/04/12 01:41:44;;;;;;;;;;;;;;;7.10;100.00;100307.03;5011892;28;19928;-73
2023/04/12 01:44:13;;;;;;;;;;;;;;;7.01;100.00;100316.56;5009139;28;19944;-73
2023/04/12 01:46:38;;;;;;;;;;;;;;;7.07;100.00;100297.41;5012843;28;19932;-74
2023/04/12 01:49:04;;;;;;;;;;;;;;;7.01;100.00;100295.19;5007468;28;19921;-73
2023/04/12 01:51:32;;;;;;;;;;;;;;;7.01;100.00;100276.50;5007962;28;19932;-73
2023/04/12 01:54:10;;;;;;;;;;;;;;;7.04;100.00;100282.47;5008710;28;19921;-74
2023/04/12 01:56:35;;;;;;;;;;;;;;;7.13;100.00;100280.13;5025711;28;19922;-73
2023/04/12 01:59:02;;;;;;;;;;;;;;;6.96;100.00;100268.81;5022932;28;20355;-72
2023/04/12 02:01:27;;;;;;;;;;;;;;;6.94;100.00;100254.72;5005623;28;19921;-73
2023/04/12 02:03:53;;;;;;;;;;;;;;;6.97;100.00;100240.31;5010344;28;19978;-75
2023/04/12 02:06:19;;;;;;;;;;;;;;;6.89;100.00;100246.19;5007546;28;20014;-74
2023/04/12 02:08:45;;;;;;;;;;;;;;;7.08;100.00;100237.72;5007167;28;19928;-73
2023/04/12 02:11:10;;;;;;;;;;;;;;;6.98;100.00;100226.84;5011029;28;19921;-74
2023/04/12 02:13:36;;;;;;;;;;;;;;;7.00;100.00;100208.06;5012080;28;19928;-76
2023/04/12 02:16:01;;;;;;;;;;;;;;;7.07;100.00;100208.47;5010641;28;19992;-75
2023/04/12 02:18:27;;;;;;;;;;;;;;;7.03;100.00;100191.81;5010739;28;19921;-74
2023/04/12 02:20:52;;;;;;;;;;;;;;;6.97;100.00;100184.28;5007270;28;20307;-76
2023/04/12 02:23:18;;;;;;;;;;;;;;;6.93;100.00;100180.97;5011484;28;20465;-73
2023/04/12 02:25:45;;;;;;;;;;;;;;;6.95;100.00;100175.53;5010552;28;19921;-73
2023/04/12 02:28:10;;;;;;;;;;;;;;;6.94;100.00;100168.47;5009716;28;19924;-74
2023/04/12 02:30:35;;;;;;;;;;;;;;;6.95;100.00;100160.34;5007004;28;20022;-74
2023/04/12 02:33:01;;;;;;;;;;;;;;;7.12;100.00;100158.28;5007995;28;20393;-76
2023/04/12 02:35:26;;;;;;;;;;;;;;;7.08;100.00;100143.44;5002383;28;20342;-73
2023/04/12 02:37:52;;;;;;;;;;;;;;;7.04;100.00;100134.78;5009145;28;19963;-74
2023/04/12 02:40:17;;;;;;;;;;;;;;;7.06;100.00;100138.19;5010106;28;20304;-74
2023/04/12 02:42:43;;;;;;;;;;;;;;;7.11;100.00;100130.72;5007978;28;19968;-75
2023/04/12 02:45:08;;;;;;;;;;;;;;;7.08;100.00;100116.75;5007608;28;19995;-73
2023/04/12 02:47:34;;;;;;;;;;;;;;;7.16;100.00;100122.34;5004323;28;20397;-74
2023/04/12 02:49:59;;;;;;;;;;;;;;;7.05;100.00;100110.66;5009436;28;19929;-75
2023/04/12 02:52:24;;;;;;;;;;;;;;;7.01;100.00;100103.84;5003464;28;19940;-75
2023/04/12 02:54:49;;;;;;;;;;;;;;;6.94;100.00;100096.44;5012069;28;19921;-73
2023/04/12 02:57:15;;;;;;;;;;;;;;;7.03;100.00;100077.03;5015527;28;19940;-73
2023/04/12 02:59:41;;;;;;;;;;;;;;;7.09;100.00;100084.59;5014889;28;20830;-75
2023/04/12 03:02:07;;;;;;;;;;;;;;;7.10;100.00;100072.94;5000386;28;19970;-72
2023/04/12 03:04:32;;;;;;;;;;;;;;;7.17;100.00;100057.31;5017210;28;19925;-74
2023/04/12 03:06:57;;;;;;;;;;;;;;;7.01;100.00;100052.31;5014930;28;20266;-75
2023/04/12 03:09:23;;;;;;;;;;;;;;;7.02;100.00;100053.97;5007297;28;20442;-73
2023/04/12 03:11:49;;;;;;;;;;;;;;;7.04;100.00;100039.56;5010461;28;21125;-73
2023/04/12 03:14:14;;;;;;;;;;;;;;;7.00;100.00;100029.25;5010637;28;19967;-73
2023/04/12 03:16:39;;;;;;;;;;;;;;;6.95;100.00;100032.25;5009027;28;20014;-72
2023/04/12 03:19:05;;;;;;;;;;;;;;;7.02;100.00;100027.28;5009848;28;19925;-73
2023/04/12 03:21:32;;;;;;;;;;;;;;;6.92;100.00;100023.63;5007513;28;19925;-73
2023/04/12 03:23:57;;;;;;;;;;;;;;;6.96;100.00;100022.44;5006904;28;19924;-73
2023/04/12 03:26:25;;;;;;;;;;;;;;;6.94;100.00;100025.19;5008127;28;20184;-73
2023/04/12 03:28:51;;;;;;;;;;;;;;;6.91;100.00;100006.75;5010248;28;19982;-73
2023/04/12 03:31:19;;;;;;;;;;;;;;;6.94;100.00;100011.03;5006809;28;19925;-73
2023/04/12 03:33:45;;;;;;;;;;;;;;;6.90;100.00;100007.72;5009257;28;19921;-75
2023/04/12 03:36:10;;;;;;;;;;;;;;;6.86;100.00;100012.44;5008753;28;19932;-73
2023/04/12 03:38:35;;;;;;;;;;;;;;;6.92;100.00;100012.97;5003427;28;20390;-74
2023/04/12 03:41:00;;;;;;;;;;;;;;;6.82;100.00;99999.47;5006435;28;20682;-75
2023/04/12 03:43:26;;;;;;;;;;;;;;;6.77;100.00;99997.13;4991216;28;20417;-73
2023/04/12 03:45:51;;;;;;;;;;;;;;;6.81;100.00;99995.94;5006507;28;20367;-72
2023/04/12 03:48:16;;;;;;;;;;;;;;;6.73;100.00;99979.66;5007330;28;20167;-74
2023/04/12 03:50:44;;;;;;;;;;;;;;;6.81;100.00;99981.75;5007778;28;19927;-71
2023/04/12 03:53:10;;;;;;;;;;;;;;;6.87;100.00;99992.81;5024688;28;19980;-75
2023/04/12 03:55:36;;;;;;;;;;;;;;;6.83;100.00;99975.31;5008530;28;20015;-74
2023/04/12 03:58:02;;;;;;;;;;;;;;;6.82;100.00;99967.44;5015561;28;19920;-72
2023/04/12 04:00:27;;;;;;;;;;;;;;;6.70;100.00;99969.22;5015475;28;19928;-74
2023/04/12 04:02:52;;;;;;;;;;;;;;;6.73;100.00;99955.66;5007661;28;19917;-72
2023/04/12 04:05:17;;;;;;;;;;;;;;;6.66;100.00;99963.25;5025174;28;20024;-73
2023/04/12 04:07:43;;;;;;;;;;;;;;;6.66;100.00;99957.09;5022860;28;19921;-75
2023/04/12 04:10:08;;;;;;;;;;;;;;;6.71;100.00;99954.94;5019352;28;19928;-74
2023/04/12 04:12:34;;;;;;;;;;;;;;;6.76;100.00;99936.72;5022956;28;19983;-73
2023/04/12 04:14:59;;;;;;;;;;;;;;;6.80;100.00;99943.53;5021113;28;19928;-72
2023/04/12 04:17:24;;;;;;;;;;;;;;;6.74;100.00;99931.53;5013199;28;20427;-74
2023/04/12 04:19:50;;;;;;;;;;;;;;;6.63;100.00;99927.97;5000343;28;20025;-74
2023/04/12 04:22:16;;;;;;;;;;;;;;;6.63;100.00;99919.97;5013619;28;20608;-74
2023/04/12 04:24:41;;;;;;;;;;;;;;;6.65;100.00;99928.72;5016422;28;19928;-75
2023/04/12 04:27:07;;;;;;;;;;;;;;;6.68;100.00;99915.97;5003029;28;20397;-74
2023/04/12 04:29:32;;;;;;;;;;;;;;;6.68;100.00;99934.66;5027979;28;19974;-75
2023/04/12 04:31:57;;;;;;;;;;;;;;;6.71;100.00;99913.06;5014304;28;20037;-74
2023/04/12 04:34:24;;;;;;;;;;;;;;;6.68;100.00;99915.97;5017696;28;19921;-74
2023/04/12 04:36:49;;;;;;;;;;;;;;;6.72;100.00;99903.28;5017580;28;20382;-73
2023/04/12 04:39:14;;;;;;;;;;;;;;;6.71;100.00;99914.91;5018756;28;19952;-75
2023/04/12 04:41:40;;;;;;;;;;;;;;;6.68;100.00;99889.31;5004432;28;20395;-74
2023/04/12 04:44:08;;;;;;;;;;;;;;;6.81;100.00;99881.19;5014476;28;20323;-75
2023/04/12 04:46:35;;;;;;;;;;;;;;;6.80;100.00;99892.84;5015529;28;19962;-76
2023/04/12 04:49:01;;;;;;;;;;;;;;;6.71;100.00;99890.91;5003310;28;19925;-76
2023/04/12 04:51:26;;;;;;;;;;;;;;;6.74;100.00;99896.84;5014962;28;19964;-77
2023/04/12 04:53:51;;;;;;;;;;;;;;;6.68;100.00;99886.63;5012115;28;19921;-76
2023/04/12 04:56:16;;;;;;;;;;;;;;;6.69;100.00;99869.66;4997309;28;19921;-79
2023/04/12 04:58:42;;;;;;;;;;;;;;;6.66;100.00;99883.22;4993052;28;19929;-77
2023/04/12 05:01:07;;;;;;;;;;;;;;;6.91;100.00;99876.00;5005414;28;19925;-76
2023/04/12 05:03:33;;;;;;;;;;;;;;;6.90;100.00;99876.97;5005595;28;19925;-74
2023/04/12 05:05:58;;;;;;;;;;;;;;;6.84;100.00;99875.63;5014608;28;19987;-75
2023/04/12 05:08:24;;;;;;;;;;;;;;;6.94;100.00;99881.09;4992356;28;20234;-76
2023/04/12 05:10:50;;;;;;;;;;;;;;;6.87;100.00;99859.38;4992203;28;20350;-78
2023/04/12 05:13:15;;;;;;;;;;;;;;;6.86;100.00;99859.53;5015940;28;19921;-76
2023/04/12 05:15:41;;;;;;;;;;;;;;;6.80;100.00;99868.81;5018650;28;19921;-76
2023/04/12 05:18:06;;;;;;;;;;;;;;;6.85;100.00;99857.81;5017555;28;19963;-77
2023/04/12 05:20:31;;;;;;;;;;;;;;;6.89;100.00;99862.78;5013003;28;19968;-75
2023/04/12 05:22:56;;;;;;;;;;;;;;;6.88;100.00;99846.91;4995364;28;20012;-77
2023/04/12 05:25:21;;;;;;;;;;;;;;;6.92;100.00;99831.50;5012098;28;19922;-80
2023/04/12 05:27:47;;;;;;;;;;;;;;;6.95;100.00;99815.25;5014802;28;19924;-76
2023/04/12 05:30:12;;;;;;;;;;;;;;;6.99;100.00;99836.22;5013523;28;19944;-77
2023/04/12 05:32:37;;;;;;;;;;;;;;;6.88;100.00;99834.41;5012364;28;19917;-75
2023/04/12 05:35:02;;;;;;;;;;;;;;;6.92;100.00;99845.66;5010928;28;19921;-76
2023/04/12 05:37:28;;;;;;;;;;;;;;;6.78;100.00;99838.75;5011609;28;19925;-78
2023/04/12 05:39:53;;;;;;;;;;;;;;;6.80;100.00;99839.47;4996883;28;20410;-77
2023/04/12 05:42:19;;;;;;;;;;;;;;;6.83;100.00;99841.91;5007906;28;19928;-78
2023/04/12 05:44:44;;;;;;;;;;;;;;;6.80;100.00;99835.97;5015620;28;19917;-77
2023/04/12 05:47:09;;;;;;;;;;;;;;;6.82;100.00;99824.19;4994444;28;20350;-77
2023/04/12 05:49:35;;;;;;;;;;;;;;;6.92;100.00;99828.81;5006949;28;20566;-77
2023/04/12 05:52:00;;;;;;;;;;;;;;;6.93;100.00;99835.88;5023332;28;20451;-75
2023/04/12 05:54:25;;;;;;;;;;;;;;;6.95;100.00;99832.09;5013193;28;20415;-74
2023/04/12 05:56:53;;;;;;;;;;;;;;;6.94;100.00;99826.88;5010598;28;19922;-78
2023/04/12 05:59:18;;;;;;;;;;;;;;;6.83;100.00;99833.06;4997774;28;19958;-78
2023/04/12 06:01:43;;;;;;;;;;;;;;;6.83;100.00;99839.25;5014695;28;20321;-76
2023/04/12 06:04:09;;;;;;;;;;;;;;;6.83;100.00;99833.91;4998868;28;19922;-76
2023/04/12 06:06:34;;;;;;;;;;;;;;;6.83;100.00;99844.56;5000655;28;19979;-78
2023/04/12 06:08:59;;;;;;;;;;;;;;;6.93;100.00;99831.34;4998743;28;19921;-78
2023/04/12 06:11:25;;;;;;;;;;;;;;;6.91;100.00;99827.97;4999275;28;19921;-77
2023/04/12 06:13:50;;;;;;;;;;;;;;;6.94;100.00;99821.56;5014859;28;20019;-77
2023/04/12 06:16:16;;;;;;;;;;;;;;;6.93;100.00;99834.03;5007044;28;19979;-76
2023/04/12 06:18:41;;;;;;;;;;;;;;;7.00;100.00;99831.75;5023059;28;19956;-79
2023/04/12 06:21:06;;;;;;;;;;;;;;;6.98;100.00;99825.69;5003999;28;19952;-78
2023/04/12 06:23:31;;;;;;;;;;;;;;;7.00;100.00;99813.06;4998336;28;20008;-77
2023/04/12 06:25:56;;;;;;;;;;;;;;;7.12;100.00;99808.56;5010709;28;20044;-76
2023/04/12 06:28:22;;;;;;;;;;;;;;;7.14;100.00;99804.78;4996116;28;19955;-80
2023/04/12 06:30:47;;;;;;;;;;;;;;;7.22;100.00;99809.50;4997866;28;20359;-76
2023/04/12 06:33:12;;;;;;;;;;;;;;;7.11;100.00;99804.19;5011107;28;20337;-78
2023/04/12 06:35:37;;;;;;;;;;;;;;;7.19;100.00;99801.75;5012768;28;20298;-80
2023/04/12 06:38:02;;;;;;;;;;;;;;;7.32;100.00;99805.13;4999579;28;19996;-77
2023/04/12 06:40:28;;;;;;;;;;;;;;;7.13;100.00;99808.44;4995058;28;19935;-79
2023/04/12 06:42:55;;;;;;;;;;;;;;;7.16;100.00;99805.53;4996089;28;21532;-77
2023/04/12 06:45:20;;;;;;;;;;;;;;;7.15;100.00;99792.31;5009215;28;19921;-78
2023/04/12 06:47:46;;;;;;;;;;;;;;;7.25;100.00;99789.75;4997889;28;20159;-80
2023/04/12 06:50:11;;;;;;;;;;;;;;;7.13;100.00;99795.09;5014598;28;20379;-77
2023/04/12 06:52:36;;;;;;;;;;;;;;;7.22;100.00;99790.81;5016104;28;19921;-79
2023/04/12 06:55:01;;;;;;;;;;;;;;;7.31;100.00;99799.91;5007808;28;20175;-78
2023/04/12 06:57:27;;;;;;;;;;;;;;;7.32;100.00;99797.13;5008115;28;19956;-78
2023/04/12 06:59:52;;;;;;;;;;;;;;;7.26;100.00;99776.25;5007017;28;19932;-77
2023/04/12 07:02:17;;;;;;;;;;;;;;;7.29;100.00;99773.34;4989342;28;20210;-78
2023/04/12 07:04:42;;;;;;;;;;;;;;;7.39;100.00;99772.59;5011652;28;20207;-77
2023/04/12 07:07:09;;;;;;;;;;;;;;;7.39;100.00;99775.28;5009923;28;19921;-78
2023/04/12 07:09:34;;;;;;;;;;;;;;;7.33;100.00;99787.28;5012901;28;19921;-79
2023/04/12 07:11:59;;;;;;;;;;;;;;;7.29;100.00;99792.03;4998268;28;19924;-77
2023/04/12 07:14:25;;;;;;;;;;;;;;;7.28;100.00;99805.53;5016169;28;20026;-76
2023/04/12 07:16:50;;;;;;;;;;;;;;;7.28;100.00;99801.00;4995887;28;20186;-79
2023/04/12 07:19:15;;;;;;;;;;;;;;;7.30;100.00;99815.09;4998661;28;19967;-78
2023/04/12 07:21:40;;;;;;;;;;;;;;;7.34;100.00;99799.66;5012352;28;19926;-76
2023/04/12 07:24:05;;;;;;;;;;;;;;;7.38;100.00;99805.63;5012876;28;19928;-76
2023/04/12 07:26:31;;;;;;;;;;;;;;;7.40;100.00;99809.84;5014130;28;19925;-75
2023/04/12 07:28:56;;;;;;;;;;;;;;;7.42;100.00;99799.03;4994852;28;19964;-76
2023/04/12 07:31:22;;;;;;;;;;;;;;;7.45;100.00;99799.66;5006269;28;19967;-75
2023/04/12 07:33:47;;;;;;;;;;;;;;;7.48;100.00;99801.22;5012026;28;20306;-76
2023/04/12 07:36:15;;;;;;;;;;;;;;;7.56;100.00;99801.44;4993359;28;19921;-75
2023/04/12 07:38:40;;;;;;;;;;;;;;;7.56;100.00;99801.44;5011728;28;20399;-75
2023/04/12 07:41:05;;;;;;;;;;;;;;;7.58;100.00;99803.97;5012554;28;20023;-76
2023/04/12 07:43:30;;;;;;;;;;;;;;;7.64;100.00;99799.00;5011191;28;19921;-76
2023/04/12 07:45:56;;;;;;;;;;;;;;;7.72;100.00;99802.84;4995577;28;20349;-76
2023/04/12 07:48:21;;;;;;;;;;;;;;;7.76;100.00;99790.94;5010824;28;19925;-76
2023/04/12 07:50:46;;;;;;;;;;;;;;;7.79;100.00;99802.22;4994051;28;19979;-75
2023/04/12 07:53:21;;;;;;;;;;;;;;;7.82;100.00;99790.44;5012731;28;20061;-76
2023/04/12 07:55:47;;;;;;;;;;;;;;;7.86;100.00;99791.88;4997902;28;19948;-75
2023/04/12 07:58:12;;;;;;;;;;;;;;;7.98;100.00;99790.00;5012445;28;19921;-75
2023/04/12 08:00:37;;;;;;;;;;;;;;;8.09;100.00;99797.13;5007098;28;20375;-76
2023/04/12 08:03:02;;;;;;;;;;;;;;;7.91;100.00;99805.72;5007960;28;19964;-75
2023/04/12 08:05:28;;;;;;;;;;;;;;;8.03;100.00;99805.63;5013955;28;20032;-76
2023/04/12 08:07:53;;;;;;;;;;;;;;;7.87;100.00;99798.91;4997757;28;19924;-75
2023/04/12 08:10:18;;;;;;;;;;;;;;;8.02;100.00;99798.59;5014435;28;19925;-75
2023/04/12 08:12:43;;;;;;;;;;;;;;;8.06;100.00;99797.38;5015199;28;19925;-75
2023/04/12 08:15:09;;;;;;;;;;;;;;;7.98;100.00;99792.66;5021469;28;19917;-75
2023/04/12 08:17:34;;;;;;;;;;;;;;;8.02;100.00;99791.44;5015670;28;19921;-75
2023/04/12 08:20:00;;;;;;;;;;;;;;;8.14;100.00;99791.38;5017512;28;19932;-75
2023/04/12 08:22:25;;;;;;;;;;;;;;;8.19;100.00;99787.34;5012931;28;19924;-75
2023/04/12 08:24:51;;;;;;;;;;;;;;;8.29;100.00;99784.75;5017761;28;19924;-75
2023/04/12 08:27:17;;;;;;;;;;;;;;;8.37;100.00;99784.91;5002608;28;19936;-75
2023/04/12 08:29:42;;;;;;;;;;;;;;;8.46;100.00;99783.31;5015061;28;19921;-75
2023/04/12 08:32:08;;;;;;;;;;;;;;;8.51;100.00;99793.63;4998011;28;19927;-75
2023/04/12 08:34:34;;;;;;;;;;;;;;;8.57;100.00;99789.56;4998025;28;20165;-75
2023/04/12 08:36:59;;;;;;;;;;;;;;;8.56;100.00;99799.44;5019679;28;19952;-75
2023/04/12 08:39:25;;;;;;;;;;;;;;;8.55;100.00;99793.22;5014316;28;20339;-75
2023/04/12 08:41:50;;;;;;;;;;;;;;;8.57;100.00;99801.13;5015529;28;20326;-76
2023/04/12 08:44:15;;;;;;;;;;;;;;;8.66;100.00;99794.13;5016827;28;20743;-75
2023/04/12 08:46:41;;;;;;;;;;;;;;;8.64;100.00;99802.28;4999254;28;20588;-75
2023/04/12 08:49:06;;;;;;;;;;;;;;;8.64;100.00;99788.06;5002501;28;19931;-75
2023/04/12 08:51:31;;;;;;;;;;;;;;;8.62;100.00;99782.81;5016733;28;20323;-75
2023/04/12 08:53:56;;;;;;;;;;;;;;;8.68;100.00;99789.50;5006835;28;20566;-75
2023/04/12 08:56:22;;;;;;;;;;;;;;;8.81;100.00;99786.59;5012309;28;20334;-75
2023/04/12 08:58:47;;;;;;;;;;;;;;;8.93;100.00;99780.16;5019734;28;19959;-75
2023/04/12 09:01:17;;;;;;;;;;;;;;;9.04;100.00;99783.72;5009140;28;19925;-75
2023/04/12 09:03:43;;;;;;;;;;;;;;;9.17;100.00;99776.28;5018795;28;19917;-75
2023/04/12 09:06:08;;;;;;;;;;;;;;;9.35;100.00;99781.00;5019613;28;20386;-76
2023/04/12 09:08:34;;;;;;;;;;;;;;;9.62;100.00;99782.19;5033099;28;19924;-75
2023/04/12 09:10:59;;;;;;;;;;;;;;;9.71;100.00;99773.28;5018419;28;20857;-77
2023/04/12 09:13:31;;;;;;;;;;;;;;;9.66;100.00;99760.31;4999330;28;19951;-75
2023/04/12 09:15:56;;;;;;;;;;;;;;;9.66;100.00;99768.34;4999243;28;19921;-75
2023/04/12 09:18:23;;;;;;;;;;;;;;;10.11;100.00;99764.25;5014265;28;20291;-75
2023/04/12 09:20:48;;;;;;;;;;;;;;;10.30;100.00;99754.47;5014718;28;19935;-75
2023/04/12 09:23:20;;;;;;;;;;;;;;;10.43;100.00;99748.81;5013487;28;19921;-75
2023/04/12 09:25:47;;;;;;;;;;;;;;;10.63;100.00;99738.88;5010692;28;20393;-76
2023/04/12 09:28:19;;;;;;;;;;;;;;;10.82;100.00;99735.28;5015115;28;19936;-75
2023/04/12 09:30:50;;;;;;;;;;;;;;;10.70;100.00;99728.38;5012391;28;20030;-76
2023/04/12 09:33:15;;;;;;;;;;;;;;;10.93;100.00;99732.38;5031852;28;19966;-76
2023/04/12 09:35:41;;;;;;;;;;;;;;;10.98;100.00;99740.00;5014829;28;19925;-76
2023/04/12 09:38:07;;;;;;;;;;;;;;;10.78;100.00;99731.19;5012653;28;20132;-75
2023/04/12 09:40:35;;;;;;;;;;;;;;;10.93;100.00;99739.59;5014687;28;19968;-76
2023/04/12 09:43:00;;;;;;;;;;;;;;;10.82;100.00;99732.59;5019418;28;19920;-76
2023/04/12 09:45:26;;;;;;;;;;;;;;;10.95;100.00;99738.44;5014394;28;19996;-75
2023/04/12 09:47:52;;;;;;;;;;;;;;;11.09;100.00;99739.78;5012571;28;19931;-76
2023/04/12 09:50:21;;;;;;;;;;;;;;;11.01;100.00;99722.72;5017045;28;20096;-75
2023/04/12 09:52:47;;;;;;;;;;;;;;;11.47;100.00;99722.72;5018588;28;19957;-76
2023/04/12 09:55:12;;;;;;;;;;;;;;;11.60;100.00;99717.81;5014828;28;20490;-76
2023/04/12 09:57:39;;;;;;;;;;;;;;;11.65;100.00;99720.88;5016722;28;20351;-76
2023/04/12 10:00:11;;;;;;;;;;;;;;;11.74;100.00;99720.97;5006905;28;19949;-76
2023/04/12 10:02:36;;;;;;;;;;;;;;;11.57;100.00;99717.28;5010641;28;20371;-77
2023/04/12 10:05:02;;;;;;;;;;;;;;;11.30;100.00;99719.03;5013189;28;19943;-76
2023/04/12 10:07:27;;;;;;;;;;;;;;;11.14;100.00;99720.53;4997834;28;19960;-76
2023/04/12 10:09:52;;;;;;;;;;;;;;;11.27;100.00;99717.47;4997043;28;20275;-75
2023/04/12 10:12:18;;;;;;;;;;;;;;;10.99;100.00;99712.13;5013756;28;20398;-76
2023/04/12 10:14:43;;;;;;;;;;;;;;;11.00;100.00;99707.63;5013210;28;20430;-75
2023/04/12 10:17:09;;;;;;;;;;;;;;;10.90;100.00;99702.31;5012981;28;19917;-76
2023/04/12 10:19:35;;;;;;;;;;;;;;;10.94;100.00;99715.28;5018884;28;19929;-76
2023/04/12 10:22:00;;;;;;;;;;;;;;;11.29;100.00;99715.47;5013365;28;19928;-76
2023/04/12 10:24:26;;;;;;;;;;;;;;;11.49;100.00;99691.16;5016001;28;19920;-77
2023/04/12 10:26:52;;;;;;;;;;;;;;;11.59;100.00;99685.72;5016680;28;19921;-75
2023/04/12 10:29:22;;;;;;;;;;;;;;;11.73;100.00;99685.16;5011069;28;19929;-75
2023/04/12 10:31:47;;;;;;;;;;;;;;;12.10;100.00;99681.44;5013731;28;20000;-75
2023/04/12 10:34:12;;;;;;;;;;;;;;;12.25;100.00;99688.91;5016452;28;19933;-75
2023/04/12 10:36:50;;;;;;;;;;;;;;;12.51;100.00;99705.06;5018048;28;19932;-74
2023/04/12 10:39:16;;;;;;;;;;;;;;;13.07;100.00;99692.97;5010007;28;20032;-75
2023/04/12 10:42:00;;;;;;;;;;;;;;;13.00;100.00;99695.50;5015192;28;20317;-75
2023/04/12 10:44:25;;;;;;;;;;;;;;;12.43;100.00;99691.53;5008022;28;19920;-74
2023/04/12 10:46:51;;;;;;;;;;;;;;;12.17;100.00;99691.56;5011243;28;19983;-75
2023/04/12 10:49:16;;;;;;;;;;;;;;;11.89;100.00;99695.19;5009868;28;19943;-76
2023/04/12 10:52:09;;;;;;;;;;;;;;;11.65;100.00;99687.78;5013245;28;19928;-75
2023/04/12 10:54:35;;;;;;;;;;;;;;;11.42;100.00;99698.16;5014889;28;19917;-76
2023/04/12 10:57:01;;;;;;;;;;;;;;;11.42;100.00;99690.91;5018166;28;20656;-75
2023/04/12 10:59:34;;;;;;;;;;;;;;;11.58;100.00;99695.59;5021376;28;19944;-75
2023/04/12 11:02:10;;;;;;;;;;;;;;;11.57;100.00;99690.41;4998184;28;19920;-75
2023/04/12 11:04:35;;;;;;;;;;;;;;;11.48;100.00;99705.59;5022856;28;20325;-75
2023/04/12 11:07:03;;;;;;;;;;;;;;;11.58;100.00;99703.66;5015552;28;19971;-75
2023/04/12 11:09:29;;;;;;;;;;;;;;;11.66;100.00;99702.88;5012173;28;19928;-75
2023/04/12 11:12:03;;;;;;;;;;;;;;;11.70;100.00;99710.50;5024197;28;20443;-75
2023/04/12 11:14:35;;;;;;;;;;;;;;;11.68;100.00;99720.56;5012930;28;19960;-74
2023/04/12 11:17:15;;;;;;;;;;;;;;;11.90;100.00;99723.78;5014380;28;19920;-76
2023/04/12 11:19:41;;;;;;;;;;;;;;;12.49;100.00;99706.19;5010953;28;19932;-76
2023/04/12 11:22:07;;;;;;;;;;;;;;;12.73;100.00;99703.63;5021650;28;19921;-76
2023/04/12 11:24:33;;;;;;;;;;;;;;;12.59;100.00;99712.31;5018415;28;19921;-76
2023/04/12 11:26:58;;;;;;;;;;;;;;;12.11;100.00;99704.66;5001281;28;19921;-76
2023/04/12 11:29:24;;;;;;;;;;;;;;;11.73;99.22;99709.34;5011606;28;19926;-73
2023/04/12 11:31:49;;;;;;;;;;;;;;;11.28;100.00;99708.41;5012937;28;19928;-72
2023/04/12 11:34:17;;;;;;;;;;;;;;;11.04;100.00;99712.53;5009418;28;19925;-73
2023/04/12 11:36:46;;;;;;;;;;;;;;;11.04;100.00;99719.75;4995681;28;19968;-74
2023/04/12 11:39:11;;;;;;;;;;;;;;;10.97;100.00;99713.28;5011460;28;19929;-73
2023/04/12 11:41:37;;;;;;;;;;;;;;;10.99;100.00;99713.97;5016740;28;19994;-73
2023/04/12 11:44:03;;;;;;;;;;;;;;;11.10;100.00;99713.78;5004457;28;19921;-73
2023/04/12 11:46:34;;;;;;;;;;;;;;;11.06;100.00;99717.75;5019174;28;19960;-74
2023/04/12 11:48:59;;;;;;;;;;;;;;;11.20;100.00;99711.03;5002501;28;19964;-73
2023/04/12 11:51:26;;;;;;;;;;;;;;;11.36;100.00;99718.44;5020758;28;20118;-77
2023/04/12 11:53:52;;;;;;;;;;;;;;;11.35;100.00;99727.50;5020202;28;19936;-73
2023/04/12 11:56:18;;;;;;;;;;;;;;;11.20;100.00;99730.66;5020428;28;19932;-73
2023/04/12 11:58:45;;;;;;;;;;;;;;;10.75;100.00;99728.78;5001873;28;19928;-76
2023/04/12 12:01:10;;;;;;;;;;;;;;;10.56;100.00;99719.84;5007141;28;19929;-75
2023/04/12 12:03:35;;;;;;;;;;;;;;;10.49;100.00;99716.88;5010938;28;19955;-74
2023/04/12 12:06:01;;;;;;;;;;;;;;;10.45;100.00;99722.69;5016390;28;19925;-74
2023/04/12 12:08:26;;;;;;;;;;;;;;;10.55;100.00;99720.84;5013231;28;19925;-76
2023/04/12 12:10:51;;;;;;;;;;;;;;;10.69;100.00;99724.88;5002903;28;19917;-74
2023/04/12 12:13:17;;;;;;;;;;;;;;;11.32;100.00;99719.72;5019565;28;20012;-73
2023/04/12 12:15:43;;;;;;;;;;;;;;;11.97;100.00;99732.06;5016997;28;19917;-74
2023/04/12 12:18:09;;;;;;;;;;;;;;;12.24;100.00;99711.44;5017847;28;20051;-74
2023/04/12 12:20:47;;;;;;;;;;;;;;;11.80;100.00;99720.31;5017356;28;20024;-75
2023/04/12 12:23:25;;;;;;;;;;;;;;;12.40;100.00;99725.03;5013505;28;19933;-74
2023/04/12 12:25:50;;;;;;;;;;;;;;;13.18;100.00;99714.25;5017579;28;19928;-73
2023/04/12 12:28:16;;;;;;;;;;;;;;;13.26;100.00;99713.44;5017128;28;19917;-73
2023/04/12 12:30:41;;;;;;;;;;;;;;;13.72;88.03;99716.56;5016407;28;20034;-73
2023/04/12 12:33:07;;;;;;;;;;;;;;;13.79;93.49;99711.31;5013559;28;19932;-74
2023/04/12 12:35:33;;;;;;;;;;;;;;;13.48;84.30;99720.91;5019983;28;19959;-74